ENSG (Sogndal Airport)      (ORBX Norway)

 RUNWAY INFORMATION
Runway Number 06 Runway Length 3150 ft Runway Width 0 ft
Runway Elevation 1619 ft Runway Displaced Threshold 0 ft Runway Surface UNK
Runway Number 24 Runway Length 3150 ft Runway Width 0 ft
Runway Elevation 1634 ft Runway Displaced Threshold 0 ft Runway Surface UNK

  METAR AND TAF INFORMATION
METAR FOR ENSG
ADDS - METARS form results

(0700 UTC 20 April 2018)
Data provider: http://aviationweather.gov/adds/metars/
 
METAR text: ENSG 200650Z VRB02KT 9999 FEW035 SCT040 09/06 Q1018 RMK WIND 3806FT 21014KT
Conditions at: ENSG (SOGNDAL/HAUKASEN, NO) observed 0650 UTC 20 April 2018
Temperature: 9.0°C (48°F)
Dewpoint: 6.0°C (43°F) [RH = 81%]
Pressure (altimeter): 30.06 inches Hg (1018.0 mb)
Winds: variable direction winds at 2 MPH (2 knots; 1.0 m/s)
Visibility: 6 or more miles (10+ km)
Ceiling: at least 12,000 feet AGL
Clouds: few clouds at 3500 feet AGL
scattered clouds at 4000 feet AGL
Weather: no significant weather observed at this time

 AIRPORT FREQUENCIES
Type AFIS Name Sogndal Frequency 119.3 MHZ
Type INFO Name Sogndal In Frequency 121.5 MHZ

 NEARBY NAVIGATION AIDS
Type VOR-DME Name Sogndal Frequency 114200 KHZ



Powered by Virtual Airlines Manager